X  Close Metar Aviation Weather Data     EGLF Farnborough
Temperature
9°C Temperature
7°C Dewpoint
87% Humidity



Wind
13 MPH
21 KM/H
6 M/S
11 KTS



210°
SSW
Current Conditions

Partly Cloudy Partly Cloudy
Pressure 1016.92 (hPa) - 30.03 (inHg)
Visibility 6.2 (mile) - 10 (km)
Airport
Airport-code EGLF

Location: Farnborough
Distance: 5 (mi)

Metar:
EGLF 191650Z 21011KT 9999 VCSH FEW014 09/07 Q1017

Time: 19-02-2020 16:50 GMT